Time;durP1;ratioP1;P1;durP2;ratioP2;P2;SDS_P1;SDS_P2;PMS_P1;PMS_P2;Temp;Humidity;BMP_temperature;BMP_pressure;BME280_temperature;BME280_humidity;BME280_pressure;Samples;Min_cycle;Max_cycle;Signal;HPM_P1;HPM_P2
2021/03/07 00:00:47;;;;;;;9.70;5.97;;;-0.30;56.80;;;;;;5032597;28;20406;-87
2021/03/07 00:03:12;;;;;;;9.60;5.55;;;-0.30;56.50;;;;;;5032033;28;20021;-87
2021/03/07 00:05:38;;;;;;;7.95;5.47;;;-0.30;56.60;;;;;;5032998;28;20022;-87
2021/03/07 00:08:04;;;;;;;10.07;6.03;;;-0.40;56.60;;;;;;5024409;28;20021;-87
2021/03/07 00:10:30;;;;;;;8.50;5.25;;;-0.40;56.80;;;;;;5032548;28;20061;-87
2021/03/07 00:12:56;;;;;;;11.55;5.65;;;-0.40;57.00;;;;;;5031854;28;20045;-88
2021/03/07 00:15:23;;;;;;;10.57;5.43;;;-0.40;57.10;;;;;;5031833;28;20041;-87
2021/03/07 00:17:50;;;;;;;7.43;5.05;;;-0.30;57.10;;;;;;5033453;28;20104;-87
2021/03/07 00:20:17;;;;;;;26.23;10.23;;;-0.20;57.20;;;;;;5031824;28;20086;-87
2021/03/07 00:22:43;;;;;;;17.05;7.70;;;-0.20;57.10;;;;;;5031744;28;20036;-87
2021/03/07 00:25:11;;;;;;;9.85;5.78;;;-0.10;57.00;;;;;;5030912;28;20044;-88
2021/03/07 00:27:37;;;;;;;9.70;5.68;;;-0.10;57.00;;;;;;5033898;28;20495;-88
2021/03/07 00:30:06;;;;;;;11.00;5.80;;;-0.10;57.00;;;;;;5028586;28;20026;-87
2021/03/07 00:32:32;;;;;;;44.30;16.88;;;-0.10;57.10;;;;;;5031518;28;20029;-87
2021/03/07 00:34:58;;;;;;;15.05;7.22;;;-0.10;57.00;;;;;;5029805;28;20028;-88
2021/03/07 00:37:23;;;;;;;12.18;6.72;;;-0.10;57.10;;;;;;5024168;28;20032;-88
2021/03/07 00:39:49;;;;;;;15.95;7.15;;;0.00;57.20;;;;;;5027971;28;20025;-87
2021/03/07 00:42:14;;;;;;;29.67;15.13;;;0.00;57.30;;;;;;5032057;28;20037;-87
2021/03/07 00:44:40;;;;;;;34.65;19.92;;;0.00;57.20;;;;;;5031444;28;20555;-87
2021/03/07 00:47:06;;;;;;;84.85;36.10;;;-0.10;57.10;;;;;;5037661;28;20068;-87
2021/03/07 00:49:33;;;;;;;17.08;9.75;;;-0.20;57.30;;;;;;5035334;28;20025;-87
2021/03/07 00:51:59;;;;;;;13.30;7.60;;;-0.20;57.50;;;;;;5035541;28;20029;-88
2021/03/07 00:54:25;;;;;;;13.20;7.13;;;-0.30;57.60;;;;;;5034580;28;20029;-87
2021/03/07 00:56:54;;;;;;;13.60;6.72;;;-0.30;57.70;;;;;;5032638;28;20030;-87
2021/03/07 00:59:21;;;;;;;12.02;7.40;;;-0.30;57.70;;;;;;5032666;28;20089;-87
2021/03/07 01:01:47;;;;;;;36.03;15.48;;;-0.30;57.70;;;;;;5033207;28;20029;-87
2021/03/07 01:04:12;;;;;;;30.50;15.73;;;-0.30;57.70;;;;;;5032125;28;20395;-87
2021/03/07 01:06:38;;;;;;;16.23;8.48;;;-0.30;57.90;;;;;;5024069;28;20121;-87
2021/03/07 01:09:04;;;;;;;13.15;7.25;;;-0.30;58.00;;;;;;5027242;28;20030;-87
2021/03/07 01:11:29;;;;;;;55.35;21.77;;;-0.20;58.10;;;;;;5016932;28;20021;-87
2021/03/07 01:13:55;;;;;;;27.23;12.93;;;-0.30;57.80;;;;;;5032034;28;20025;-87
2021/03/07 01:16:21;;;;;;;53.10;21.35;;;-0.30;58.00;;;;;;5031378;28;20022;-87
2021/03/07 01:18:47;;;;;;;23.20;11.15;;;-0.30;58.70;;;;;;5032263;28;20037;-87
2021/03/07 01:21:13;;;;;;;15.95;8.85;;;-0.30;58.30;;;;;;5030539;28;20442;-87
2021/03/07 01:23:39;;;;;;;45.90;17.95;;;-0.20;58.50;;;;;;5030526;28;20025;-87
2021/03/07 01:26:04;;;;;;;21.52;9.68;;;-0.20;58.40;;;;;;5030383;28;20046;-87
2021/03/07 01:28:30;;;;;;;27.17;11.00;;;-0.20;58.20;;;;;;5030893;28;20036;-87
2021/03/07 01:30:56;;;;;;;31.80;12.98;;;-0.30;58.20;;;;;;5030751;28;20032;-87
2021/03/07 01:33:21;;;;;;;15.95;8.60;;;-0.30;58.50;;;;;;5030208;28;20037;-87
2021/03/07 01:35:47;;;;;;;18.38;10.02;;;-0.30;58.60;;;;;;5028197;28;20041;-88
2021/03/07 01:38:13;;;;;;;28.50;12.57;;;-0.30;58.60;;;;;;5030767;28;20030;-87
2021/03/07 01:40:43;;;;;;;32.35;14.13;;;-0.20;58.60;;;;;;5026522;28;20033;-88
2021/03/07 01:43:10;;;;;;;29.10;12.43;;;-0.30;58.50;;;;;;5030899;28;20022;-87
2021/03/07 01:45:36;;;;;;;65.25;23.58;;;-0.30;58.50;;;;;;5030307;28;20025;-87
2021/03/07 01:48:05;;;;;;;49.13;19.65;;;-0.30;58.40;;;;;;5030530;28;20034;-88
2021/03/07 01:50:32;;;;;;;29.60;12.95;;;-0.40;58.40;;;;;;5030250;28;20483;-87
2021/03/07 01:52:59;;;;;;;34.80;15.38;;;-0.40;58.50;;;;;;5030472;28;20034;-87
2021/03/07 01:55:27;;;;;;;27.15;12.30;;;-0.50;58.50;;;;;;5031950;28;20033;-87
2021/03/07 01:58:01;;;;;;;19.80;9.27;;;-0.50;58.50;;;;;;5039932;28;20400;-87
2021/03/07 02:00:26;;;;;;;17.75;8.93;;;-0.50;58.90;;;;;;5038409;28;20441;-87
2021/03/07 02:02:52;;;;;;;31.05;13.00;;;-0.50;58.70;;;;;;5039972;28;20026;-87
2021/03/07 02:05:19;;;;;;;47.35;19.08;;;-0.50;58.70;;;;;;5034146;28;20033;-87
2021/03/07 02:07:46;;;;;;;40.85;17.85;;;-0.50;58.70;;;;;;5027596;28;20084;-87
2021/03/07 02:10:15;;;;;;;29.92;13.48;;;-0.50;58.60;;;;;;5034515;28;20045;-87
2021/03/07 02:12:42;;;;;;;37.83;16.67;;;-0.50;58.60;;;;;;5035565;28;20446;-88
2021/03/07 02:15:12;;;;;;;33.05;15.00;;;-0.60;58.60;;;;;;5033326;28;20488;-87
2021/03/07 02:17:39;;;;;;;17.42;9.38;;;-0.60;58.80;;;;;;5033548;28;20044;-87
2021/03/07 02:20:06;;;;;;;18.65;8.18;;;-0.70;58.70;;;;;;5034218;28;20037;-87
2021/03/07 02:22:36;;;;;;;13.32;7.72;;;-0.70;58.80;;;;;;5033155;28;20029;-87
2021/03/07 02:25:11;;;;;;;14.35;8.30;;;-0.70;59.00;;;;;;5032914;28;20057;-86
2021/03/07 02:27:37;;;;;;;15.23;8.15;;;-0.80;58.90;;;;;;5033497;28;20084;-87
2021/03/07 02:30:06;;;;;;;17.95;8.25;;;-0.90;58.80;;;;;;5034497;28;20021;-87
2021/03/07 02:32:35;;;;;;;15.23;7.50;;;-0.90;59.10;;;;;;5033155;28;20547;-87
2021/03/07 02:35:05;;;;;;;14.73;7.45;;;-0.90;59.00;;;;;;5032733;28;20021;-87
2021/03/07 02:37:32;;;;;;;12.00;6.72;;;-0.90;59.10;;;;;;5027508;28;20040;-87
2021/03/07 02:39:59;;;;;;;10.15;6.60;;;-0.90;59.10;;;;;;5022578;28;20506;-87
2021/03/07 02:42:27;;;;;;;10.68;6.10;;;-0.90;59.10;;;;;;5032642;28;20135;-87
2021/03/07 02:45:07;;;;;;;9.30;5.65;;;-0.90;59.20;;;;;;5034024;28;20032;-87
2021/03/07 02:47:36;;;;;;;8.13;5.35;;;-0.90;59.30;;;;;;5027003;28;20137;-87
2021/03/07 02:50:08;;;;;;;7.60;5.25;;;-0.80;59.10;;;;;;5033445;28;20025;-87
2021/03/07 02:52:37;;;;;;;6.45;5.25;;;-0.80;59.30;;;;;;5034342;28;20022;-87
2021/03/07 02:55:05;;;;;;;8.73;5.43;;;-0.80;59.20;;;;;;5032545;28;20022;-87
2021/03/07 02:57:36;;;;;;;8.50;5.38;;;-0.70;59.60;;;;;;5032690;28;20029;-87
2021/03/07 03:00:08;;;;;;;10.20;5.60;;;-0.70;59.00;;;;;;5033298;28;20175;-87
2021/03/07 03:02:35;;;;;;;12.82;5.95;;;-0.80;58.80;;;;;;5032482;28;20027;-87
2021/03/07 03:05:03;;;;;;;9.00;5.90;;;-1.00;58.70;;;;;;5033636;28;20037;-87
2021/03/07 03:07:31;;;;;;;17.13;6.38;;;-1.00;59.10;;;;;;5029277;28;20029;-87
2021/03/07 03:09:58;;;;;;;9.48;5.63;;;-1.10;59.20;;;;;;5030021;28;20025;-87
2021/03/07 03:12:29;;;;;;;10.15;5.30;;;-1.10;59.20;;;;;;5033107;28;20026;-87
2021/03/07 03:14:56;;;;;;;11.68;5.90;;;-1.20;59.10;;;;;;5032710;28;20502;-87
2021/03/07 03:17:25;;;;;;;8.55;5.38;;;-1.30;58.90;;;;;;5034309;28;20026;-86
2021/03/07 03:19:52;;;;;;;9.50;5.03;;;-1.40;59.30;;;;;;5032813;28;20101;-87
2021/03/07 03:22:18;;;;;;;9.15;5.30;;;-1.50;59.30;;;;;;5034518;28;20021;-87
2021/03/07 03:24:44;;;;;;;9.57;5.32;;;-1.60;59.40;;;;;;5031804;28;20083;-87
2021/03/07 03:27:11;;;;;;;8.30;4.78;;;-1.60;59.50;;;;;;5032671;28;20033;-87
2021/03/07 03:29:38;;;;;;;10.88;5.25;;;-1.70;59.50;;;;;;5032273;28;20549;-87
2021/03/07 03:32:05;;;;;;;7.82;4.95;;;-1.70;59.70;;;;;;5032997;28;20146;-87
2021/03/07 03:34:30;;;;;;;12.38;6.13;;;-1.80;59.70;;;;;;5017553;28;20033;-87
2021/03/07 03:36:56;;;;;;;9.50;5.53;;;-1.70;59.90;;;;;;5019033;28;20025;-87
2021/03/07 03:39:24;;;;;;;9.30;5.38;;;-1.70;59.70;;;;;;5021053;28;20433;-87
2021/03/07 03:41:55;;;;;;;7.82;5.18;;;-1.60;59.80;;;;;;5033368;28;20037;-87
2021/03/07 03:44:24;;;;;;;10.52;5.35;;;-1.60;59.80;;;;;;5032309;28;20395;-87
2021/03/07 03:46:52;;;;;;;11.70;5.55;;;-1.60;59.70;;;;;;5032154;28;20040;-87
2021/03/07 03:49:25;;;;;;;8.45;5.05;;;-1.60;59.60;;;;;;5032849;28;20555;-87
2021/03/07 03:52:01;;;;;;;10.20;4.95;;;-1.60;59.70;;;;;;5033483;28;20040;-87
2021/03/07 03:54:29;;;;;;;11.00;5.35;;;-1.60;59.80;;;;;;5031681;28;20396;-87
2021/03/07 03:56:56;;;;;;;8.02;5.10;;;-1.60;59.80;;;;;;5032370;28;20037;-87
2021/03/07 03:59:24;;;;;;;8.10;5.18;;;-1.60;59.70;;;;;;5031607;28;20030;-87
2021/03/07 04:01:51;;;;;;;9.50;5.85;;;-1.60;59.80;;;;;;5031555;28;20061;-87
2021/03/07 04:04:17;;;;;;;9.32;5.32;;;-1.60;60.00;;;;;;5032143;28;20101;-87
2021/03/07 04:06:45;;;;;;;10.32;6.10;;;-1.50;60.00;;;;;;5013989;28;20060;-87
2021/03/07 04:09:11;;;;;;;9.85;5.53;;;-1.40;60.00;;;;;;5027824;28;20488;-86
2021/03/07 04:11:37;;;;;;;10.25;5.93;;;-1.40;59.90;;;;;;5031341;28;20025;-87
2021/03/07 04:14:03;;;;;;;10.52;6.13;;;-1.40;60.00;;;;;;5031890;28;20025;-87
2021/03/07 04:16:30;;;;;;;12.63;6.43;;;-1.30;60.00;;;;;;5031537;28;20029;-86
2021/03/07 04:18:56;;;;;;;12.52;6.63;;;-1.30;59.90;;;;;;5031535;28;20025;-87
2021/03/07 04:21:23;;;;;;;13.15;6.93;;;-1.30;59.90;;;;;;5031494;28;20056;-87
2021/03/07 04:23:48;;;;;;;11.82;6.57;;;-1.30;59.90;;;;;;5040820;28;20026;-87
2021/03/07 04:26:14;;;;;;;13.15;7.53;;;-1.30;59.80;;;;;;5038414;28;20040;-87
2021/03/07 04:28:41;;;;;;;11.80;7.65;;;-1.40;59.80;;;;;;5035314;28;20025;-87
2021/03/07 04:31:07;;;;;;;13.60;7.70;;;-1.50;59.70;;;;;;5033658;28;20036;-87
2021/03/07 04:33:33;;;;;;;10.40;6.60;;;-1.60;59.80;;;;;;5033629;28;20463;-87
2021/03/07 04:35:59;;;;;;;15.43;7.13;;;-1.70;60.10;;;;;;5026104;28;20086;-87
2021/03/07 04:38:25;;;;;;;11.65;7.10;;;-1.80;60.30;;;;;;5020081;28;20029;-87
2021/03/07 04:40:51;;;;;;;12.68;7.35;;;-1.90;60.40;;;;;;5029944;28;20025;-86
2021/03/07 04:43:20;;;;;;;15.00;7.57;;;-1.90;60.60;;;;;;5031115;28;20033;-87
2021/03/07 04:45:46;;;;;;;14.77;7.35;;;-1.90;60.70;;;;;;5031561;28;20052;-86
2021/03/07 04:48:11;;;;;;;13.70;7.32;;;-2.00;60.70;;;;;;5032393;28;20060;-87
2021/03/07 04:50:37;;;;;;;12.23;7.72;;;-2.00;60.80;;;;;;5031579;28;20025;-87
2021/03/07 04:53:03;;;;;;;13.05;6.63;;;-1.90;60.90;;;;;;5031095;28;20025;-87
2021/03/07 04:55:28;;;;;;;13.13;6.95;;;-1.90;60.80;;;;;;5030817;28;20057;-87
2021/03/07 04:57:54;;;;;;;12.50;6.85;;;-1.90;60.50;;;;;;5030183;28;20069;-86
2021/03/07 05:00:20;;;;;;;9.40;6.25;;;-1.90;60.40;;;;;;5030961;28;20040;-87
2021/03/07 05:02:46;;;;;;;8.40;5.22;;;-1.90;60.60;;;;;;5031499;28;20032;-87
2021/03/07 05:05:12;;;;;;;11.43;6.07;;;-2.00;60.70;;;;;;5030560;28;20029;-87
2021/03/07 05:07:38;;;;;;;8.52;5.40;;;-1.90;60.90;;;;;;5031017;28;20022;-87
2021/03/07 05:10:06;;;;;;;9.38;5.38;;;-1.80;60.70;;;;;;5026777;28;20400;-87
2021/03/07 05:12:31;;;;;;;8.02;4.75;;;-1.80;60.60;;;;;;5030615;28;20021;-87
2021/03/07 05:14:58;;;;;;;8.27;5.10;;;-1.80;61.10;;;;;;5032766;28;20171;-87
2021/03/07 05:17:24;;;;;;;8.82;5.53;;;-1.80;60.70;;;;;;5031410;28;20041;-87
2021/03/07 05:19:51;;;;;;;10.48;6.43;;;-1.80;60.50;;;;;;5033451;28;20029;-87
2021/03/07 05:22:17;;;;;;;10.32;6.85;;;-1.80;60.60;;;;;;5034133;28;20060;-87
2021/03/07 05:24:43;;;;;;;13.20;7.70;;;-1.80;60.40;;;;;;5032148;28;20124;-87
2021/03/07 05:27:09;;;;;;;13.30;6.90;;;-1.80;60.70;;;;;;5028973;28;20053;-87
2021/03/07 05:29:35;;;;;;;10.43;6.43;;;-1.90;60.40;;;;;;5031884;28;20579;-90
2021/03/07 05:32:02;;;;;;;11.05;6.97;;;-1.90;60.50;;;;;;5039574;28;20021;-87
2021/03/07 05:34:28;;;;;;;11.63;7.07;;;-1.90;60.60;;;;;;5035262;28;20128;-87
2021/03/07 05:36:54;;;;;;;9.45;6.05;;;-2.00;61.20;;;;;;5022776;28;20026;-87
2021/03/07 05:39:20;;;;;;;9.13;5.95;;;-2.00;60.60;;;;;;5041040;28;20090;-88
2021/03/07 05:41:46;;;;;;;9.23;5.70;;;-2.10;60.70;;;;;;5039577;28;20100;-87
2021/03/07 05:44:11;;;;;;;7.97;5.25;;;-2.10;61.00;;;;;;5038079;28;20342;-88
2021/03/07 05:46:38;;;;;;;8.55;4.90;;;-2.10;61.10;;;;;;5039171;28;20388;-87
2021/03/07 05:49:05;;;;;;;8.00;5.03;;;-2.00;61.10;;;;;;5036952;28;20030;-87
2021/03/07 05:51:31;;;;;;;6.28;4.57;;;-2.00;61.00;;;;;;5039065;28;20066;-87
2021/03/07 05:53:58;;;;;;;8.30;4.65;;;-1.90;60.80;;;;;;5036691;28;20032;-88
2021/03/07 05:56:24;;;;;;;8.90;5.18;;;-2.00;60.40;;;;;;5037004;28;20033;-87
2021/03/07 05:58:50;;;;;;;8.15;4.60;;;-2.10;60.20;;;;;;5036915;28;20438;-87
2021/03/07 06:01:17;;;;;;;6.43;4.32;;;-2.30;60.30;;;;;;5038928;28;20033;-88
2021/03/07 06:03:42;;;;;;;11.15;5.72;;;-2.40;60.70;;;;;;5037029;28;20036;-87
2021/03/07 06:06:09;;;;;;;10.93;5.63;;;-2.40;60.90;;;;;;5037609;28;20021;-87
2021/03/07 06:08:34;;;;;;;7.68;5.15;;;-2.40;60.90;;;;;;5033912;28;20067;-87
2021/03/07 06:11:00;;;;;;;7.15;4.85;;;-2.30;61.10;;;;;;5037601;28;20075;-87
2021/03/07 06:13:40;;;;;;;8.50;4.60;;;-2.40;60.80;;;;;;5036251;28;20075;-87
2021/03/07 06:16:09;;;;;;;9.20;4.72;;;-2.30;61.20;;;;;;5038972;28;20022;-87
2021/03/07 06:18:45;;;;;;;11.13;4.53;;;-2.30;61.10;;;;;;5038083;28;20063;-86
2021/03/07 06:21:33;;;;;;;7.28;4.85;;;-2.30;61.20;;;;;;5037005;28;20030;-87
2021/03/07 06:24:01;;;;;;;6.65;4.57;;;-2.20;61.10;;;;;;5037022;28;20116;-87
2021/03/07 06:26:27;;;;;;;9.48;5.57;;;-2.10;61.00;;;;;;5033818;28;20026;-87
2021/03/07 06:29:13;;;;;;;8.70;5.03;;;-2.00;60.90;;;;;;5036402;28;20104;-87
2021/03/07 06:31:40;;;;;;;7.13;4.25;;;-2.00;60.90;;;;;;5037443;28;20189;-86
2021/03/07 06:34:06;;;;;;;7.55;4.68;;;-1.90;60.80;;;;;;5038452;28;20022;-87
2021/03/07 06:36:32;;;;;;;8.57;5.25;;;-1.70;60.70;;;;;;5036744;28;20021;-87
2021/03/07 06:39:01;;;;;;;7.95;4.93;;;-1.40;60.50;;;;;;5026434;28;20029;-87
2021/03/07 06:41:28;;;;;;;9.02;5.13;;;-1.10;60.00;;;;;;5026128;28;20403;-87
2021/03/07 06:44:12;;;;;;;7.22;4.38;;;-0.70;59.60;;;;;;5032488;28;20040;-86
2021/03/07 06:46:44;;;;;;;6.97;4.53;;;-0.40;59.20;;;;;;5033617;28;20117;-88
2021/03/07 06:49:37;;;;;;;9.35;5.53;;;-0.10;58.90;;;;;;5033818;28;20030;-87
2021/03/07 06:52:12;;;;;;;;;;;0.30;58.70;;;;;;5034176;28;20056;-87
2021/03/07 06:54:40;;;;;;;9.52;4.50;;;0.60;58.10;;;;;;5021631;28;20004;-87
2021/03/07 06:57:07;;;;;;;6.93;4.55;;;0.90;57.80;;;;;;5035979;28;20179;-87
2021/03/07 06:59:35;;;;;;;7.15;4.80;;;1.20;57.60;;;;;;5033385;28;20480;-88
2021/03/07 07:02:12;;;;;;;8.90;4.80;;;1.40;57.70;;;;;;5034515;28;20075;-87
2021/03/07 07:05:03;;;;;;;7.60;4.53;;;1.60;57.60;;;;;;5034244;28;20049;-87
2021/03/07 07:07:48;;;;;;;7.03;4.28;;;1.90;57.60;;;;;;4993534;28;20029;-87
2021/03/07 07:10:15;;;;;;;7.03;4.65;;;2.10;57.30;;;;;;5033673;28;20332;-87
2021/03/07 07:12:41;;;;;;;7.22;4.20;;;2.30;57.10;;;;;;5035909;28;20033;-88
2021/03/07 07:18:36;;;;;;;11.73;5.90;;;2.70;56.80;;;;;;4956205;29;20023;-87
2021/03/07 07:21:04;;;;;;;10.85;6.93;;;2.80;56.80;;;;;;5039995;23;20038;-85
2021/03/07 07:23:30;;;;;;;7.57;5.20;;;2.90;56.80;;;;;;5013440;28;20021;-88
2021/03/07 07:25:56;;;;;;;8.15;4.70;;;3.10;56.80;;;;;;5009312;28;20416;-88
2021/03/07 07:28:22;;;;;;;7.32;4.63;;;3.40;56.70;;;;;;5019222;28;20038;-87
2021/03/07 07:30:57;;;;;;;8.13;4.50;;;3.60;56.40;;;;;;5017239;28;20030;-87
2021/03/07 07:33:46;;;;;;;6.20;4.45;;;3.80;56.30;;;;;;5016751;28;20014;-87
2021/03/07 07:36:41;;;;;;;6.13;4.07;;;4.00;56.00;;;;;;4999993;28;20018;-87
2021/03/07 07:39:11;;;;;;;5.85;4.25;;;4.20;55.70;;;;;;5002527;28;20042;-85
2021/03/07 07:41:39;;;;;;;7.07;4.60;;;4.60;55.40;;;;;;5018037;28;20363;-84
2021/03/07 07:44:10;;;;;;;6.30;5.00;;;4.90;54.90;;;;;;5017069;28;20018;-86
2021/03/07 07:46:59;;;;;;;5.78;4.80;;;5.30;54.60;;;;;;5018728;28;20040;-84
2021/03/07 07:49:40;;;;;;;9.18;5.60;;;5.70;54.20;;;;;;5004525;28;20026;-84
2021/03/07 07:52:30;;;;;;;5.65;4.50;;;5.90;53.70;;;;;;5010236;28;20216;-87
2021/03/07 07:55:07;;;;;;;7.28;5.25;;;6.10;53.30;;;;;;5000566;28;20029;-85
2021/03/07 07:57:34;;;;;;;7.55;5.47;;;6.50;52.80;;;;;;5016603;28;20041;-87
2021/03/07 08:00:01;;;;;;;5.60;5.00;;;6.80;52.30;;;;;;5014857;28;20022;-85
2021/03/07 08:02:45;;;;;;;6.25;4.57;;;7.00;51.80;;;;;;5017261;28;20184;-88
2021/03/07 08:05:20;;;;;;;5.65;4.63;;;7.20;51.50;;;;;;5017984;28;20030;-88
2021/03/07 08:08:04;;;;;;;4.80;3.90;;;7.10;51.60;;;;;;5018255;28;20053;-85
2021/03/07 08:10:39;;;;;;;5.97;4.85;;;6.90;51.70;;;;;;5018277;28;20068;-84
2021/03/07 08:13:09;;;;;;;5.75;5.15;;;7.10;51.40;;;;;;5020343;28;20037;-87
2021/03/07 08:15:41;;;;;;;5.10;4.70;;;7.40;50.80;;;;;;5014637;28;20030;-89
2021/03/07 08:18:07;;;;;;;4.50;3.90;;;7.90;50.00;;;;;;5019424;28;20103;-87
2021/03/07 08:20:39;;;;;;;6.82;3.90;;;8.30;49.60;;;;;;5021019;28;20044;-87
2021/03/07 08:23:14;;;;;;;6.68;3.90;;;8.90;48.70;;;;;;5015618;28;20025;-85
2021/03/07 08:25:46;;;;;;;5.60;3.85;;;9.20;47.00;;;;;;5015469;28;20516;-86
2021/03/07 08:28:30;;;;;;;5.83;4.83;;;9.30;46.70;;;;;;5014633;28;20121;-88
2021/03/07 08:31:09;;;;;;;6.50;5.00;;;9.50;47.10;;;;;;5011590;28;20376;-87
2021/03/07 08:33:37;;;;;;;7.63;4.95;;;9.50;47.30;;;;;;5016799;28;20038;-85
2021/03/07 08:36:17;;;;;;;4.35;3.72;;;9.40;47.70;;;;;;5004252;28;20076;-87
2021/03/07 08:38:48;;;;;;;5.22;3.92;;;9.20;48.30;;;;;;5015592;28;20108;-85
2021/03/07 08:41:14;;;;;;;7.47;3.63;;;9.10;48.90;;;;;;5014307;28;20026;-88
2021/03/07 08:43:40;;;;;;;5.88;3.80;;;9.10;49.40;;;;;;5014486;28;20022;-88
2021/03/07 08:46:11;;;;;;;6.75;4.13;;;9.10;49.80;;;;;;5017303;28;20471;-88
2021/03/07 08:48:40;;;;;;;7.87;4.43;;;9.10;49.60;;;;;;5015466;28;20034;-87
2021/03/07 08:51:07;;;;;;;6.88;4.10;;;9.00;49.60;;;;;;5004743;28;20033;-88
2021/03/07 08:53:36;;;;;;;5.78;3.83;;;9.00;49.50;;;;;;5016634;28;20392;-86
2021/03/07 08:56:02;;;;;;;6.32;4.00;;;9.10;49.60;;;;;;5015217;28;20029;-86
2021/03/07 08:58:27;;;;;;;5.38;4.03;;;9.10;49.40;;;;;;5017499;28;20026;-86
2021/03/07 09:00:55;;;;;;;5.80;3.80;;;9.10;49.30;;;;;;5016640;28;20115;-88
2021/03/07 09:03:23;;;;;;;6.65;4.10;;;9.10;49.20;;;;;;5016995;28;20125;-87
2021/03/07 09:05:49;;;;;;;6.65;3.90;;;9.10;49.00;;;;;;5017480;28;20077;-88
2021/03/07 09:08:20;;;;;;;6.82;3.95;;;9.00;48.90;;;;;;5024812;28;20029;-88
2021/03/07 09:10:48;;;;;;;4.93;3.60;;;9.00;49.10;;;;;;5026393;28;20026;-85
2021/03/07 09:13:19;;;;;;;5.55;3.78;;;9.10;49.20;;;;;;5026374;28;20021;-86
2021/03/07 09:15:55;;;;;;;4.15;3.42;;;9.30;49.30;;;;;;5025557;28;20032;-87
2021/03/07 09:18:23;;;;;;;5.00;4.03;;;9.40;49.00;;;;;;5026786;28;20404;-85
2021/03/07 09:20:55;;;;;;;6.82;3.20;;;9.60;48.90;;;;;;5023839;28;20044;-85
2021/03/07 09:23:24;;;;;;;6.80;2.97;;;9.70;48.80;;;;;;5025199;28;20126;-85
2021/03/07 09:25:50;;;;;;;4.78;3.22;;;9.80;48.60;;;;;;5013042;28;20034;-88
2021/03/07 09:28:40;;;;;;;6.53;3.70;;;9.80;48.60;;;;;;5015257;28;20099;-85
2021/03/07 09:31:12;;;;;;;4.60;3.60;;;9.90;48.60;;;;;;5008600;28;20048;-86
2021/03/07 09:33:46;;;;;;;4.88;3.50;;;10.00;48.40;;;;;;5012119;28;20025;-86
2021/03/07 09:36:12;;;;;;;4.20;3.13;;;10.10;48.50;;;;;;5011307;28;20026;-88
2021/03/07 09:38:39;;;;;;;4.78;3.47;;;10.10;48.40;;;;;;5006819;28;20036;-87
2021/03/07 09:41:06;;;;;;;5.15;3.25;;;10.20;47.90;;;;;;5013834;28;20084;-86
2021/03/07 09:43:32;;;;;;;4.30;3.38;;;10.20;47.50;;;;;;5012427;28;20028;-87
2021/03/07 09:45:58;;;;;;;4.85;3.70;;;10.20;47.50;;;;;;5014222;28;20117;-86
2021/03/07 09:48:36;;;;;;;4.50;3.33;;;10.20;46.70;;;;;;5016488;28;20033;-85
2021/03/07 09:51:04;;;;;;;5.55;3.75;;;10.10;46.60;;;;;;5014882;28;20468;-86
2021/03/07 09:53:31;;;;;;;7.13;3.75;;;9.90;46.30;;;;;;5014458;28;20466;-86
2021/03/07 09:55:57;;;;;;;5.90;3.97;;;9.80;45.90;;;;;;5016901;28;20033;-87
2021/03/07 09:58:23;;;;;;;5.07;3.67;;;9.80;46.40;;;;;;5015170;28;20030;-88
2021/03/07 10:00:50;;;;;;;5.10;3.63;;;9.80;46.90;;;;;;5013715;28;20282;-85
2021/03/07 10:03:21;;;;;;;6.20;3.83;;;9.90;46.80;;;;;;5013558;28;20045;-89
2021/03/07 10:06:07;;;;;;;6.30;4.10;;;10.00;46.90;;;;;;5013034;28;20037;-88
2021/03/07 10:08:34;;;;;;;4.90;3.47;;;10.20;47.60;;;;;;5005409;28;20116;-86
2021/03/07 10:11:15;;;;;;;5.40;3.58;;;10.40;47.60;;;;;;5006800;28;20375;-86
2021/03/07 10:13:41;;;;;;;5.47;3.60;;;10.60;47.30;;;;;;5019233;28;20085;-87
2021/03/07 10:16:08;;;;;;;4.93;3.40;;;10.60;47.50;;;;;;5016872;28;20030;-89
2021/03/07 10:18:34;;;;;;;5.00;3.45;;;10.80;47.40;;;;;;5018037;28;20057;-87
2021/03/07 10:21:00;;;;;;;7.32;4.05;;;10.90;47.30;;;;;;5025852;28;20045;-85
2021/03/07 10:23:31;;;;;;;4.68;3.38;;;11.00;47.30;;;;;;5018972;28;20030;-88
2021/03/07 10:25:58;;;;;;;4.70;3.65;;;11.10;47.20;;;;;;5019547;28;20034;-88
2021/03/07 10:28:31;;;;;;;5.43;3.78;;;11.10;46.90;;;;;;5019288;28;20089;-88
2021/03/07 10:31:22;;;;;;;5.28;3.75;;;11.10;46.60;;;;;;5018223;28;20029;-87
2021/03/07 10:33:52;;;;;;;5.10;4.00;;;11.10;47.60;;;;;;5015239;28;20034;-85
2021/03/07 10:36:21;;;;;;;6.50;4.50;;;11.20;46.70;;;;;;5017968;28;20117;-87
2021/03/07 10:38:49;;;;;;;6.85;4.13;;;11.30;46.80;;;;;;5012591;28;20031;-87
2021/03/07 10:41:30;;;;;;;5.38;3.90;;;11.30;46.60;;;;;;5021558;28;20026;-87
2021/03/07 10:43:57;;;;;;;6.88;4.35;;;11.40;46.50;;;;;;5015405;28;20110;-88
2021/03/07 10:46:30;;;;;;;5.88;4.05;;;11.40;46.40;;;;;;5028244;28;20050;-81
2021/03/07 10:48:57;;;;;;;6.07;3.60;;;11.40;46.60;;;;;;5038635;28;20022;-82
2021/03/07 10:51:23;;;;;;;6.10;4.15;;;11.40;46.90;;;;;;5038619;28;20037;-81
2021/03/07 10:53:50;;;;;;;4.95;4.05;;;11.40;46.70;;;;;;5038951;28;20030;-81
2021/03/07 10:56:16;;;;;;;12.80;8.60;;;11.40;46.50;;;;;;5035102;28;20041;-86
2021/03/07 10:58:41;;;;;;;6.20;4.60;;;11.40;46.60;;;;;;5011765;28;20029;-87
2021/03/07 11:01:11;;;;;;;6.25;4.57;;;11.30;46.60;;;;;;5008889;28;20061;-84
2021/03/07 11:03:37;;;;;;;6.35;4.45;;;11.20;46.50;;;;;;5007142;28;20041;-86
2021/03/07 11:06:02;;;;;;;6.72;4.80;;;11.20;46.40;;;;;;5016966;28;20117;-89
2021/03/07 11:08:28;;;;;;;6.55;4.60;;;10.90;45.80;;;;;;5017713;28;20030;-88
2021/03/07 11:10:54;;;;;;;5.43;4.32;;;10.70;45.90;;;;;;5027208;28;20061;-82
2021/03/07 11:13:19;;;;;;;6.28;4.32;;;10.50;46.20;;;;;;5031687;28;20071;-83
2021/03/07 11:15:45;;;;;;;6.25;4.20;;;10.50;46.70;;;;;;5034317;28;20033;-82
2021/03/07 11:18:12;;;;;;;7.28;4.90;;;10.40;46.50;;;;;;5034641;28;20033;-85
2021/03/07 11:20:37;;;;;;;6.80;4.47;;;10.50;47.30;;;;;;5019662;28;20030;-84
2021/03/07 11:23:03;;;;;;;5.55;4.45;;;10.50;46.30;;;;;;5017273;28;20057;-85
2021/03/07 11:25:28;;;;;;;5.82;4.45;;;10.50;46.40;;;;;;5019245;28;20037;-85
2021/03/07 11:27:54;;;;;;;5.82;4.45;;;10.60;46.50;;;;;;5017972;28;20068;-85
2021/03/07 11:30:20;;;;;;;5.82;4.43;;;10.70;46.50;;;;;;5021371;28;20022;-85
2021/03/07 11:32:46;;;;;;;6.97;4.57;;;10.80;46.40;;;;;;5019944;28;20025;-84
2021/03/07 11:35:11;;;;;;;5.45;4.28;;;10.90;46.50;;;;;;5019990;28;20049;-86
2021/03/07 11:37:37;;;;;;;5.45;4.47;;;11.00;46.50;;;;;;5020831;28;20369;-87
2021/03/07 11:40:04;;;;;;;6.43;4.72;;;11.10;46.50;;;;;;5022822;28;20033;-87
2021/03/07 11:42:30;;;;;;;6.88;4.70;;;11.20;46.60;;;;;;5029602;28;20029;-88
2021/03/07 11:44:55;;;;;;;7.80;5.10;;;11.30;46.50;;;;;;5027673;28;20311;-87
2021/03/07 11:47:21;;;;;;;7.15;4.97;;;11.40;46.40;;;;;;5027582;28;20105;-86
2021/03/07 11:49:47;;;;;;;6.55;4.70;;;11.60;46.40;;;;;;5021617;28;20546;-85
2021/03/07 11:52:12;;;;;;;6.72;4.97;;;11.70;46.20;;;;;;5016932;28;20018;-85
2021/03/07 11:54:38;;;;;;;6.30;4.88;;;11.80;46.10;;;;;;5002518;28;20493;-87
2021/03/07 11:57:05;;;;;;;7.32;4.85;;;12.00;46.10;;;;;;5020067;28;20403;-87
2021/03/07 11:59:31;;;;;;;6.53;4.82;;;12.20;45.90;;;;;;5020808;28;20029;-85
2021/03/07 12:01:57;;;;;;;8.20;5.50;;;12.30;45.50;;;;;;5022071;28;20041;-84
2021/03/07 12:04:23;;;;;;;7.38;5.70;;;12.40;45.30;;;;;;5015225;28;20077;-84
2021/03/07 12:06:48;;;;;;;7.28;5.57;;;12.30;45.20;;;;;;5017957;28;20030;-86
2021/03/07 12:09:15;;;;;;;7.38;5.60;;;12.20;45.70;;;;;;5020925;28;20496;-86
2021/03/07 12:11:40;;;;;;;8.43;5.57;;;12.30;46.00;;;;;;5021289;28;20362;-87
2021/03/07 12:14:06;;;;;;;6.90;4.82;;;12.40;45.70;;;;;;5019713;28;20044;-85
2021/03/07 12:16:31;;;;;;;8.40;5.70;;;12.40;45.90;;;;;;5019621;28;20022;-86
2021/03/07 12:18:57;;;;;;;8.60;5.53;;;12.30;45.30;;;;;;5021723;28;20097;-87
2021/03/07 12:21:22;;;;;;;8.43;5.63;;;12.30;45.50;;;;;;5017026;28;20030;-88
2021/03/07 12:23:48;;;;;;;9.05;6.05;;;12.30;45.30;;;;;;5012371;28;20400;-86
2021/03/07 12:26:14;;;;;;;13.52;5.90;;;12.30;45.40;;;;;;5011430;28;20472;-85
2021/03/07 12:28:39;;;;;;;9.23;6.20;;;12.40;45.40;;;;;;5010111;28;20129;-85
2021/03/07 12:31:05;;;;;;;9.73;6.63;;;12.50;45.40;;;;;;5017203;28;20026;-87
2021/03/07 12:33:30;;;;;;;8.00;5.85;;;12.60;45.50;;;;;;5016184;28;20116;-87
2021/03/07 12:35:56;;;;;;;9.80;5.38;;;12.70;45.50;;;;;;5015908;28;20049;-87
2021/03/07 12:38:22;;;;;;;9.02;6.47;;;12.80;44.70;;;;;;5016505;28;20034;-86
2021/03/07 12:40:47;;;;;;;8.82;6.15;;;12.70;44.80;;;;;;5013520;28;20030;-88
2021/03/07 12:43:13;;;;;;;9.20;6.10;;;12.60;44.80;;;;;;5016389;28;20120;-86
2021/03/07 12:45:39;;;;;;;10.00;5.57;;;12.50;44.90;;;;;;5017793;28;20026;-85
2021/03/07 12:48:05;;;;;;;10.88;6.30;;;12.40;44.70;;;;;;5017157;28;20476;-87
2021/03/07 12:50:31;;;;;;;9.23;6.63;;;12.20;45.00;;;;;;5016596;28;20033;-87
2021/03/07 12:52:56;;;;;;;10.27;6.85;;;12.00;45.10;;;;;;5008689;28;20054;-87
2021/03/07 12:55:22;;;;;;;9.10;5.90;;;11.90;45.40;;;;;;5015621;28;20033;-84